createdAt,value
2022-10-19T00:01:15.160Z,14.57
2022-10-19T00:03:46.745Z,14.63
2022-10-19T00:06:16.190Z,14.59
2022-10-19T00:08:45.063Z,14.60
2022-10-19T00:11:13.983Z,14.50
2022-10-19T00:13:41.681Z,14.43
2022-10-19T00:16:11.651Z,14.50
2022-10-19T00:18:40.063Z,14.44
2022-10-19T00:21:08.897Z,14.29
2022-10-19T00:23:36.853Z,14.26
2022-10-19T00:26:04.743Z,14.21
2022-10-19T00:28:34.060Z,14.05
2022-10-19T00:31:04.046Z,13.94
2022-10-19T00:33:31.923Z,13.93
2022-10-19T00:35:59.259Z,13.94
2022-10-19T00:38:27.919Z,13.83
2022-10-19T00:40:55.379Z,13.74
2022-10-19T00:43:26.273Z,13.66
2022-10-19T00:45:54.962Z,13.62
2022-10-19T00:48:26.223Z,13.38
2022-10-19T00:50:58.510Z,13.41
2022-10-19T00:53:28.622Z,13.35
2022-10-19T00:55:57.436Z,13.32
2022-10-19T00:58:25.094Z,13.27
2022-10-19T01:00:54.391Z,13.23
2022-10-19T01:03:22.044Z,13.15
2022-10-19T01:05:49.844Z,13.31
2022-10-19T01:08:17.894Z,13.45
2022-10-19T01:10:52.998Z,13.43
2022-10-19T01:13:36.305Z,13.36
2022-10-19T01:16:12.225Z,13.36
2022-10-19T01:18:49.555Z,13.26
2022-10-19T01:21:23.303Z,13.25
2022-10-19T01:24:22.291Z,13.37
2022-10-19T01:27:23.197Z,13.49
2022-10-19T01:30:02.866Z,13.39
2022-10-19T01:32:40.538Z,13.24
2022-10-19T01:35:12.217Z,13.40
2022-10-19T01:37:47.050Z,13.38
2022-10-19T01:40:22.052Z,13.34
2022-10-19T01:42:57.369Z,13.43
2022-10-19T01:45:31.646Z,13.36
2022-10-19T01:48:02.824Z,13.35
2022-10-19T01:50:36.214Z,13.26
2022-10-19T01:53:06.095Z,13.41
2022-10-19T01:55:34.329Z,13.32
2022-10-19T01:58:08.286Z,13.33
2022-10-19T02:00:42.428Z,13.32
2022-10-19T02:03:12.284Z,13.28
2022-10-19T02:05:41.809Z,13.27
2022-10-19T02:08:14.960Z,13.28
2022-10-19T02:10:44.548Z,13.23
2022-10-19T02:13:14.000Z,13.24
2022-10-19T02:15:47.614Z,13.15
2022-10-19T02:18:20.645Z,13.10
2022-10-19T02:20:48.370Z,13.11
2022-10-19T02:23:20.395Z,13.08
2022-10-19T02:25:48.444Z,13.01
2022-10-19T02:28:16.268Z,12.95
2022-10-19T02:30:45.370Z,13.15
2022-10-19T02:33:12.966Z,13.36
2022-10-19T02:35:40.848Z,13.38
2022-10-19T02:38:11.418Z,13.32
2022-10-19T02:40:43.496Z,13.38
2022-10-19T02:43:14.167Z,13.42
2022-10-19T02:45:49.106Z,13.38
2022-10-19T02:48:21.606Z,13.33
2022-10-19T02:50:49.260Z,13.37
2022-10-19T02:53:16.980Z,13.25
2022-10-19T02:55:47.376Z,13.25
2022-10-19T02:58:14.852Z,13.17
2022-10-19T03:00:42.603Z,13.26
2022-10-19T03:03:11.489Z,13.32
2022-10-19T03:05:39.328Z,13.35
2022-10-19T03:08:06.766Z,13.23
2022-10-19T03:10:34.569Z,13.22
2022-10-19T03:13:01.976Z,13.14
2022-10-19T03:15:29.664Z,13.12
2022-10-19T03:17:57.520Z,12.97
2022-10-19T03:20:26.558Z,12.89
2022-10-19T03:25:21.430Z,12.76
2022-10-19T03:27:48.750Z,12.71
2022-10-19T03:30:16.579Z,12.80
2022-10-19T03:32:44.022Z,12.78
2022-10-19T03:35:11.698Z,12.78
2022-10-19T03:37:40.356Z,12.76
2022-10-19T03:40:09.166Z,12.68
2022-10-19T03:42:36.491Z,12.65
2022-10-19T03:45:04.684Z,12.67
2022-10-19T03:47:32.236Z,12.58
2022-10-19T03:50:00.321Z,12.43
2022-10-19T03:52:27.569Z,12.51
2022-10-19T03:54:56.625Z,12.53
2022-10-19T03:57:23.907Z,12.36
2022-10-19T03:59:51.938Z,12.28
2022-10-19T04:02:19.333Z,12.22
2022-10-19T04:04:47.208Z,12.35
2022-10-19T04:07:14.386Z,12.36
2022-10-19T04:09:42.192Z,12.27
2022-10-19T04:12:11.122Z,12.42
2022-10-19T04:14:56.227Z,12.28
2022-10-19T04:17:26.291Z,12.25
2022-10-19T04:19:54.038Z,12.18
2022-10-19T04:22:21.321Z,12.26
2022-10-19T04:24:49.273Z,12.30
2022-10-19T04:27:18.413Z,12.36
2022-10-19T04:29:46.103Z,12.38
2022-10-19T04:32:13.521Z,12.24
2022-10-19T04:34:41.280Z,12.17
2022-10-19T04:37:08.734Z,12.10
2022-10-19T04:39:36.377Z,12.13
2022-10-19T04:42:03.789Z,12.15
2022-10-19T04:44:33.079Z,12.22
2022-10-19T04:47:00.991Z,12.22
2022-10-19T04:49:28.910Z,12.16
2022-10-19T04:51:56.383Z,12.12
2022-10-19T04:54:24.257Z,12.02
2022-10-19T04:56:51.862Z,12.03
2022-10-19T04:59:19.865Z,12.11
2022-10-19T05:01:48.677Z,12.09
2022-10-19T05:04:16.891Z,12.04
2022-10-19T05:06:44.411Z,12.18
2022-10-19T05:09:12.258Z,12.16
2022-10-19T05:11:39.724Z,12.05
2022-10-19T05:14:07.596Z,12.05
2022-10-19T05:16:34.905Z,12.11
2022-10-19T05:19:04.403Z,12.17
2022-10-19T05:21:31.813Z,12.18
2022-10-19T05:23:59.584Z,12.21
2022-10-19T05:26:28.543Z,11.96
2022-10-19T05:28:57.987Z,11.89
2022-10-19T05:31:27.700Z,12.00
2022-10-19T05:33:56.041Z,11.85
2022-10-19T05:36:26.350Z,11.78
2022-10-19T05:38:55.628Z,11.79
2022-10-19T05:41:24.272Z,11.87
2022-10-19T05:43:54.596Z,11.89
2022-10-19T05:46:22.419Z,11.98
2022-10-19T05:48:50.284Z,11.84
2022-10-19T05:51:19.453Z,11.78
2022-10-19T05:53:49.237Z,11.81
2022-10-19T05:56:20.850Z,11.78
2022-10-19T05:58:49.357Z,11.86
2022-10-19T06:01:17.742Z,11.75
2022-10-19T06:03:46.190Z,11.87
2022-10-19T06:06:13.792Z,11.87
2022-10-19T06:08:41.628Z,11.88
2022-10-19T06:11:12.497Z,11.90
2022-10-19T06:13:41.731Z,11.90
2022-10-19T06:16:10.520Z,11.99
2022-10-19T06:18:38.518Z,12.01
2022-10-19T06:21:08.023Z,11.84
2022-10-19T06:23:36.421Z,11.98
2022-10-19T06:26:06.776Z,12.03
2022-10-19T06:28:37.050Z,11.95
2022-10-19T06:31:07.160Z,11.99
2022-10-19T06:33:39.156Z,12.07
2022-10-19T06:36:07.011Z,12.10
2022-10-19T06:38:34.660Z,12.00
2022-10-19T06:41:02.382Z,12.01
2022-10-19T06:43:30.518Z,12.04
2022-10-19T06:45:59.610Z,12.10
2022-10-19T06:48:27.893Z,12.14
2022-10-19T06:50:59.270Z,12.20
2022-10-19T06:53:28.292Z,12.15
2022-10-19T06:55:57.856Z,12.07
2022-10-19T06:58:26.076Z,12.21
2022-10-19T07:00:57.303Z,12.18
2022-10-19T07:03:27.052Z,12.29
2022-10-19T07:05:55.861Z,12.26
2022-10-19T07:08:24.558Z,12.24
2022-10-19T07:10:52.314Z,12.06
2022-10-19T07:13:20.660Z,12.11
2022-10-19T07:15:48.167Z,12.00
2022-10-19T07:18:16.361Z,12.09
2022-10-19T07:20:54.621Z,12.26
2022-10-19T07:23:22.337Z,12.26
2022-10-19T07:25:49.685Z,12.20
2022-10-19T07:28:17.449Z,12.16
2022-10-19T07:30:44.848Z,12.31
2022-10-19T07:33:12.773Z,12.42
2022-10-19T07:35:40.128Z,12.45
2022-10-19T07:38:09.413Z,12.48
2022-10-19T07:40:37.134Z,12.37
2022-10-19T07:43:05.089Z,12.36
2022-10-19T07:45:33.113Z,12.30
2022-10-19T07:48:00.692Z,12.29
2022-10-19T07:50:27.898Z,12.45
2022-10-19T07:52:55.693Z,12.53
2022-10-19T07:55:24.371Z,12.56
2022-10-19T07:57:51.945Z,12.60
2022-10-19T08:00:19.437Z,12.68
2022-10-19T08:03:04.948Z,12.42
2022-10-19T08:05:35.123Z,12.43
2022-10-19T08:08:03.447Z,12.61
2022-10-19T08:10:32.472Z,12.78
2022-10-19T08:13:00.160Z,12.78
2022-10-19T08:15:29.853Z,12.80
2022-10-19T08:17:57.751Z,12.84
2022-10-19T08:20:25.106Z,12.90
2022-10-19T08:22:56.459Z,12.96
2022-10-19T08:25:26.749Z,13.02
2022-10-19T08:27:55.779Z,13.09
2022-10-19T08:30:23.118Z,12.96
2022-10-19T08:32:50.749Z,12.97
2022-10-19T08:35:18.495Z,13.07
2022-10-19T08:37:46.580Z,12.97
2022-10-19T08:40:18.997Z,13.06
2022-10-19T08:42:55.565Z,13.05
2022-10-19T08:48:25.404Z,13.04
2022-10-19T08:50:52.665Z,13.07
2022-10-19T08:53:27.144Z,13.08
2022-10-19T08:56:04.946Z,13.26
2022-10-19T08:58:46.466Z,13.44
2022-10-19T09:01:26.391Z,13.43
2022-10-19T09:04:01.256Z,13.32
2022-10-19T09:06:35.100Z,13.55
2022-10-19T09:09:03.531Z,13.46
2022-10-19T09:11:35.637Z,13.50
2022-10-19T09:14:11.006Z,13.70
2022-10-19T09:16:40.163Z,13.55
2022-10-19T09:19:15.542Z,13.55
2022-10-19T09:21:48.854Z,13.52
2022-10-19T09:24:29.123Z,13.64
2022-10-19T09:26:58.877Z,13.53
2022-10-19T09:29:31.789Z,13.81
2022-10-19T09:32:04.173Z,13.74
2022-10-19T09:34:36.788Z,13.89
2022-10-19T09:37:03.848Z,13.72
2022-10-19T09:39:32.098Z,13.80
2022-10-19T09:42:16.530Z,14.10
2022-10-19T09:44:50.181Z,14.09
2022-10-19T09:47:32.025Z,14.19
2022-10-19T09:50:16.617Z,14.28
2022-10-19T09:52:45.393Z,14.36
2022-10-19T09:55:36.121Z,14.31
2022-10-19T09:58:06.092Z,14.30
2022-10-19T10:00:36.803Z,14.43
2022-10-19T10:03:06.735Z,14.43
2022-10-19T10:05:36.059Z,14.60
2022-10-19T10:08:04.072Z,14.52
2022-10-19T10:10:38.035Z,14.64
2022-10-19T10:13:06.141Z,14.66
2022-10-19T10:15:43.709Z,14.77
2022-10-19T10:18:16.873Z,14.83
2022-10-19T10:20:58.620Z,14.96
2022-10-19T10:23:30.475Z,14.95
2022-10-19T10:25:58.742Z,14.97
2022-10-19T10:28:27.372Z,14.82
2022-10-19T10:30:59.794Z,14.73
2022-10-19T10:33:45.867Z,14.70
2022-10-19T10:36:14.647Z,14.56
2022-10-19T10:38:46.547Z,14.38
2022-10-19T10:41:16.429Z,14.25
2022-10-19T10:46:23.828Z,14.11
2022-10-19T10:48:58.456Z,14.24
2022-10-19T10:51:33.364Z,14.26
2022-10-19T10:54:15.685Z,14.43
2022-10-19T10:57:10.898Z,14.57
2022-10-19T10:59:45.759Z,15.10
2022-10-19T11:05:01.869Z,15.58
2022-10-19T11:07:32.875Z,15.53
2022-10-19T11:10:06.697Z,15.62
2022-10-19T11:12:40.033Z,16.05
2022-10-19T11:15:17.366Z,16.09
2022-10-19T11:17:56.920Z,16.48
2022-10-19T11:20:30.159Z,16.25
2022-10-19T11:23:07.152Z,15.90
2022-10-19T11:25:45.572Z,15.38
2022-10-19T11:28:29.615Z,15.19
2022-10-19T11:31:04.538Z,15.13
2022-10-19T11:33:44.735Z,14.98
2022-10-19T11:36:28.811Z,14.71
2022-10-19T11:39:13.554Z,14.59
2022-10-19T11:41:50.709Z,14.41
2022-10-19T11:44:28.922Z,14.41
2022-10-19T11:47:11.625Z,14.19
2022-10-19T11:49:54.468Z,14.23
2022-10-19T11:52:34.193Z,14.16
2022-10-19T11:55:14.017Z,14.17
2022-10-19T11:57:48.753Z,14.18
2022-10-19T12:00:37.733Z,14.08
2022-10-19T12:03:38.832Z,13.98
2022-10-19T12:06:12.297Z,13.84
2022-10-19T12:08:58.173Z,13.78
2022-10-19T12:11:36.742Z,13.72
2022-10-19T12:14:10.948Z,13.78
2022-10-19T12:16:44.410Z,13.68
2022-10-19T12:19:19.496Z,13.78
2022-10-19T12:21:48.734Z,13.75
2022-10-19T12:24:20.376Z,13.72
2022-10-19T12:26:49.456Z,13.80
2022-10-19T12:29:20.545Z,13.92
2022-10-19T12:31:49.083Z,13.93
2022-10-19T12:34:26.979Z,13.94
2022-10-19T12:36:59.055Z,13.78
2022-10-19T12:39:35.022Z,13.66
2022-10-19T12:42:14.731Z,13.79
2022-10-19T12:45:10.257Z,13.76
2022-10-19T12:47:38.123Z,13.72
2022-10-19T12:50:06.166Z,13.65
2022-10-19T12:52:38.344Z,13.68
2022-10-19T12:55:29.616Z,13.61
2022-10-19T12:58:01.755Z,13.72
2022-10-19T13:00:31.205Z,13.78
2022-10-19T13:03:03.032Z,13.83
2022-10-19T13:05:32.395Z,13.91
2022-10-19T13:08:02.535Z,13.92
2022-10-19T13:10:33.266Z,13.68
2022-10-19T13:13:02.015Z,13.60
2022-10-19T13:15:56.956Z,13.65
2022-10-19T13:19:01.643Z,13.73
2022-10-19T13:21:50.666Z,13.52
2022-10-19T13:24:33.133Z,13.51
2022-10-19T13:27:25.819Z,13.60
2022-10-19T13:29:53.975Z,13.87
2022-10-19T13:32:40.896Z,13.78
2022-10-19T13:35:33.434Z,13.44
2022-10-19T13:38:31.239Z,13.42
2022-10-19T13:41:05.493Z,13.09
2022-10-19T13:43:39.920Z,13.23
2022-10-19T13:46:14.240Z,13.10
2022-10-19T13:49:13.640Z,13.02
2022-10-19T13:51:50.245Z,12.89
2022-10-19T13:54:38.175Z,13.24
2022-10-19T13:57:18.180Z,13.41
2022-10-19T14:00:05.450Z,13.46
2022-10-19T14:03:16.652Z,13.52
2022-10-19T14:06:22.271Z,13.57
2022-10-19T14:09:25.838Z,13.53
2022-10-19T14:11:54.524Z,13.69
2022-10-19T14:14:24.497Z,13.71
2022-10-19T14:16:59.763Z,13.78
2022-10-19T14:19:33.299Z,13.83
2022-10-19T14:22:17.264Z,13.87
2022-10-19T14:24:45.100Z,14.05
2022-10-19T14:27:19.426Z,14.33
2022-10-19T14:29:49.595Z,14.39
2022-10-19T14:32:22.415Z,14.32
2022-10-19T14:34:50.629Z,14.49
2022-10-19T14:37:20.281Z,14.56
2022-10-19T14:40:02.357Z,14.73
2022-10-19T14:42:38.043Z,14.67
2022-10-19T14:45:12.431Z,14.75
2022-10-19T14:47:53.669Z,14.77
2022-10-19T14:53:33.977Z,14.74
2022-10-19T14:56:06.771Z,14.49
2022-10-19T14:58:36.965Z,14.41
2022-10-19T15:01:05.810Z,14.45
2022-10-19T15:03:34.836Z,13.99
2022-10-19T15:06:06.087Z,13.89
2022-10-19T15:08:37.813Z,13.88
2022-10-19T15:11:07.195Z,13.81
2022-10-19T15:13:40.403Z,13.94
2022-10-19T15:16:29.703Z,13.63
2022-10-19T15:19:03.971Z,13.67
2022-10-19T15:21:33.517Z,13.75
2022-10-19T15:24:15.699Z,13.55
2022-10-19T15:27:01.720Z,13.48
2022-10-19T15:29:36.256Z,13.29
2022-10-19T15:32:15.506Z,13.12
2022-10-19T15:34:45.942Z,12.98
2022-10-19T15:37:19.996Z,12.86
2022-10-19T15:39:48.219Z,12.70
2022-10-19T15:42:34.099Z,12.77
2022-10-19T15:45:02.500Z,12.72
2022-10-19T15:47:30.418Z,12.61
2022-10-19T15:50:01.045Z,12.48
2022-10-19T15:52:29.942Z,12.51
2022-10-19T15:54:58.806Z,12.54
2022-10-19T15:57:30.553Z,12.49
2022-10-19T16:00:00.232Z,12.49
2022-10-19T16:02:28.092Z,12.57
2022-10-19T16:04:55.776Z,12.64
2022-10-19T16:07:29.464Z,12.43
2022-10-19T16:09:57.307Z,12.47
2022-10-19T16:12:26.414Z,12.47
2022-10-19T16:14:54.474Z,12.43
2022-10-19T16:17:22.530Z,12.38
2022-10-19T16:19:50.207Z,12.24
2022-10-19T16:22:20.777Z,12.15
2022-10-19T16:24:49.540Z,12.25
2022-10-19T16:27:17.801Z,12.26
2022-10-19T16:29:45.230Z,12.18
2022-10-19T16:32:13.092Z,12.19
2022-10-19T16:34:40.597Z,12.20
2022-10-19T16:37:08.560Z,12.22
2022-10-19T16:39:35.945Z,12.23
2022-10-19T16:42:05.107Z,12.30
2022-10-19T16:44:32.732Z,12.24
2022-10-19T16:47:00.385Z,12.12
2022-10-19T16:49:27.998Z,12.15
2022-10-19T16:51:57.460Z,12.12
2022-10-19T16:54:28.897Z,11.99
2022-10-19T16:56:56.679Z,12.02
2022-10-19T16:59:25.329Z,11.98
2022-10-19T17:01:53.031Z,11.95
2022-10-19T17:04:20.458Z,12.04
2022-10-19T17:06:48.469Z,11.96
2022-10-19T17:09:41.319Z,12.08
2022-10-19T17:12:05.626Z,12.02
2022-10-19T17:14:35.478Z,12.00
2022-10-19T17:17:03.491Z,12.00
2022-10-19T17:19:33.550Z,12.07
2022-10-19T17:22:01.391Z,11.99
2022-10-19T17:24:28.882Z,12.10
2022-10-19T17:26:56.656Z,11.92
2022-10-19T17:29:24.494Z,11.98
2022-10-19T17:31:53.614Z,11.94
2022-10-19T17:34:20.942Z,12.28
2022-10-19T17:36:49.053Z,12.38
2022-10-19T17:39:19.063Z,12.45
2022-10-19T17:41:51.715Z,12.62
2022-10-19T17:44:19.870Z,12.75
2022-10-19T17:46:48.306Z,12.81
2022-10-19T17:49:17.935Z,12.74
2022-10-19T17:51:45.778Z,12.79
2022-10-19T17:54:14.588Z,12.61
2022-10-19T17:56:42.992Z,12.42
2022-10-19T17:59:10.620Z,12.47
2022-10-19T18:01:38.708Z,12.49
2022-10-19T18:04:06.816Z,12.44
2022-10-19T18:06:37.418Z,12.20
2022-10-19T18:09:08.027Z,12.29
2022-10-19T18:11:37.519Z,12.26
2022-10-19T18:14:06.420Z,12.23
2022-10-19T18:16:36.197Z,12.30
2022-10-19T18:19:04.992Z,12.30
2022-10-19T18:21:37.561Z,12.43
2022-10-19T18:24:09.070Z,12.45
2022-10-19T18:26:39.965Z,12.45
2022-10-19T18:29:11.389Z,12.47
2022-10-19T18:31:40.022Z,12.48
2022-10-19T18:34:13.098Z,12.42
2022-10-19T18:36:43.629Z,12.24
2022-10-19T18:39:13.901Z,12.06
2022-10-19T18:41:42.532Z,12.04
2022-10-19T18:44:13.334Z,12.05
2022-10-19T18:46:41.670Z,11.78
2022-10-19T18:49:10.514Z,11.72
2022-10-19T18:51:39.227Z,11.74
2022-10-19T18:54:08.650Z,11.53
2022-10-19T18:56:36.579Z,11.47
2022-10-19T18:59:04.431Z,11.51
2022-10-19T19:01:32.584Z,11.29
2022-10-19T19:04:07.157Z,11.12
2022-10-19T19:06:36.802Z,10.88
2022-10-19T19:09:08.217Z,11.02
2022-10-19T19:11:37.743Z,11.00
2022-10-19T19:14:07.709Z,10.97
2022-10-19T19:16:36.967Z,10.82
2022-10-19T19:19:04.874Z,10.66
2022-10-19T19:21:33.229Z,10.68
2022-10-19T19:24:03.058Z,10.59
2022-10-19T19:26:34.506Z,10.74
2022-10-19T19:29:01.851Z,10.61
2022-10-19T19:31:29.757Z,10.64
2022-10-19T19:34:00.030Z,10.71
2022-10-19T19:36:28.893Z,10.84
2022-10-19T19:38:57.325Z,10.89
2022-10-19T19:41:25.401Z,10.62
2022-10-19T19:43:55.566Z,10.72
2022-10-19T19:46:23.504Z,10.76
2022-10-19T19:48:51.188Z,10.66
2022-10-19T19:51:21.004Z,10.64
2022-10-19T19:53:48.741Z,10.55
2022-10-19T19:56:16.988Z,10.73
2022-10-19T19:58:45.580Z,10.81
2022-10-19T20:01:17.360Z,10.97
2022-10-19T20:03:45.429Z,11.05
2022-10-19T20:06:14.231Z,11.00
2022-10-19T20:08:41.837Z,10.67
2022-10-19T20:11:12.224Z,10.70
2022-10-19T20:13:40.086Z,10.63
2022-10-19T20:16:08.931Z,10.47
2022-10-19T20:18:37.699Z,10.68
2022-10-19T20:21:05.900Z,10.62
2022-10-19T20:23:33.567Z,10.39
2022-10-19T20:26:01.636Z,10.46
2022-10-19T20:28:31.782Z,10.43
2022-10-19T20:31:00.912Z,10.27
2022-10-19T20:33:30.392Z,10.19
2022-10-19T20:36:03.285Z,10.24
2022-10-19T20:38:30.530Z,10.16
2022-10-19T20:40:58.365Z,10.16
2022-10-19T20:43:25.803Z,10.04
2022-10-19T20:45:53.482Z,10.01
2022-10-19T20:48:20.775Z,9.98
2022-10-19T20:50:48.778Z,9.86
2022-10-19T20:53:17.527Z,9.87
2022-10-19T20:55:45.331Z,9.62
2022-10-19T20:58:12.672Z,9.47
2022-10-19T21:00:40.667Z,9.25
2022-10-19T21:03:07.986Z,9.17
2022-10-19T21:05:38.354Z,9.16
2022-10-19T21:08:05.780Z,9.08
2022-10-19T21:10:34.950Z,9.05
2022-10-19T21:13:02.266Z,8.99
2022-10-19T21:15:29.799Z,8.86
2022-10-19T21:17:57.115Z,8.95
2022-10-19T21:20:24.944Z,9.08
2022-10-19T21:22:52.047Z,8.98
2022-10-19T21:25:19.816Z,8.83
2022-10-19T21:27:51.612Z,8.68
2022-10-19T21:30:19.106Z,8.58
2022-10-19T21:32:47.956Z,8.58
2022-10-19T21:35:16.258Z,8.57
2022-10-19T21:37:43.730Z,8.52
2022-10-19T21:40:11.760Z,8.50
2022-10-19T21:42:38.999Z,8.39
2022-10-19T21:45:29.173Z,8.43
2022-10-19T21:47:57.390Z,8.29
2022-10-19T21:50:25.197Z,8.24
2022-10-19T21:52:52.343Z,8.17
2022-10-19T21:55:20.050Z,8.17
2022-10-19T21:57:47.326Z,8.15
2022-10-19T22:00:16.274Z,8.18
2022-10-19T22:02:43.672Z,8.08
2022-10-19T22:05:11.366Z,8.11
2022-10-19T22:07:41.373Z,8.19
2022-10-19T22:10:09.863Z,8.18
2022-10-19T22:12:37.712Z,8.12
2022-10-19T22:15:06.857Z,7.92
2022-10-19T22:17:35.743Z,7.80
2022-10-19T22:20:04.700Z,7.69
2022-10-19T22:22:32.030Z,7.60
2022-10-19T22:25:00.132Z,7.61
2022-10-19T22:27:27.652Z,7.67
2022-10-19T22:29:55.283Z,7.75
2022-10-19T22:32:22.682Z,7.69
2022-10-19T22:34:51.976Z,7.59
2022-10-19T22:37:19.303Z,7.53
2022-10-19T22:39:46.997Z,7.39
2022-10-19T22:42:51.342Z,7.33
2022-10-19T22:45:19.266Z,7.37
2022-10-19T22:47:47.143Z,7.29
2022-10-19T22:50:16.545Z,7.28
2022-10-19T22:52:44.505Z,7.11
2022-10-19T22:55:12.418Z,7.10
2022-10-19T22:57:39.829Z,7.24
2022-10-19T23:00:08.890Z,7.20
2022-10-19T23:02:36.402Z,7.25
2022-10-19T23:05:05.226Z,7.32
2022-10-19T23:07:34.713Z,7.19
2022-10-19T23:10:02.717Z,6.90
2022-10-19T23:12:30.212Z,6.94
2022-10-19T23:14:58.097Z,6.92
2022-10-19T23:17:25.739Z,6.99
2022-10-19T23:19:53.821Z,6.93
2022-10-19T23:22:21.334Z,6.92
2022-10-19T23:24:50.509Z,6.89
2022-10-19T23:27:17.822Z,6.92
2022-10-19T23:29:45.898Z,6.74
2022-10-19T23:32:13.306Z,6.78
2022-10-19T23:34:43.211Z,6.62
2022-10-19T23:37:13.225Z,6.54
2022-10-19T23:39:40.916Z,6.40
2022-10-19T23:42:09.699Z,6.44
2022-10-19T23:44:40.551Z,6.43
2022-10-19T23:47:08.197Z,6.40
2022-10-19T23:49:35.858Z,6.36
2022-10-19T23:52:03.336Z,6.40
2022-10-19T23:54:31.657Z,6.34
2022-10-19T23:56:58.991Z,6.38
2022-10-19T23:59:28.123Z,6.42
